VIR99 EGPF-EGLL
Flight info
| Callsign | VIR99 |
|---|---|
| Flight time | 0h 53m |
| Altitude | 33000 |
| Route | NORBO T256 DCS N57 POL P18 LISTO L612 HON |
| Aircraft | A346/H-SDE2E3FGHIJ3J4J5M1RWXY/LB1D1 |
Departure
| Time | 2026-05-07 19:23 |
|---|---|
| Airport | Glasgow Airport (EGPF) |
Arrival
| Time | 2026-05-07 20:17 |
|---|---|
| Airport | London Heathrow Airport (EGLL) |
| Time | Latitude | Longitude | Altitude | Speed | Heading |
|---|---|---|---|---|---|
| 2026-05-07 18:58 | 55.86359 | -4.43985 | 38 ft | 0 kts | 242° |
| 2026-05-07 19:12 | 55.86365 | -4.43962 | 40 ft | 4 kts | 265° |
| 2026-05-07 19:12 | 55.86362 | -4.43921 | 40 ft | 4 kts | 275° |
| 2026-05-07 19:13 | 55.86362 | -4.43877 | 40 ft | 4 kts | 263° |
| 2026-05-07 19:13 | 55.86364 | -4.43858 | 39 ft | 4 kts | 218° |
| 2026-05-07 19:13 | 55.86360 | -4.43858 | 39 ft | 4 kts | 169° |
| 2026-05-07 19:13 | 55.86383 | -4.43874 | 36 ft | 4 kts | 152° |
| 2026-05-07 19:14 | 55.86407 | -4.43896 | 37 ft | 4 kts | 152° |
| 2026-05-07 19:14 | 55.86430 | -4.43919 | 36 ft | 4 kts | 152° |
| 2026-05-07 19:14 | 55.86454 | -4.43942 | 37 ft | 4 kts | 152° |
| 2026-05-07 19:14 | 55.86478 | -4.43964 | 35 ft | 4 kts | 152° |
| 2026-05-07 19:15 | 55.86501 | -4.43987 | 35 ft | 4 kts | 152° |
| 2026-05-07 19:15 | 55.86525 | -4.44009 | 38 ft | 4 kts | 152° |
| 2026-05-07 19:15 | 55.86549 | -4.44032 | 38 ft | 4 kts | 152° |
| 2026-05-07 19:15 | 55.86573 | -4.44055 | 35 ft | 4 kts | 152° |
| 2026-05-07 19:16 | 55.86594 | -4.44075 | 37 ft | 1 kts | 152° |
| 2026-05-07 19:16 | 55.86598 | -4.44079 | 37 ft | 0 kts | 152° |
| 2026-05-07 19:17 | 55.86596 | -4.44077 | 37 ft | 1 kts | 152° |
| 2026-05-07 19:17 | 55.86590 | -4.44071 | 37 ft | 0 kts | 151° |
| 2026-05-07 19:18 | 55.86583 | -4.44060 | 36 ft | 2 kts | 133° |
| 2026-05-07 19:18 | 55.86584 | -4.44038 | 38 ft | 4 kts | 61° |
| 2026-05-07 19:18 | 55.86692 | -4.43833 | 40 ft | 24 kts | 46° |
| 2026-05-07 19:18 | 55.86760 | -4.43567 | 40 ft | 17 kts | 73° |
| 2026-05-07 19:19 | 55.86795 | -4.43353 | 40 ft | 20 kts | 73° |
| 2026-05-07 19:19 | 55.86837 | -4.43094 | 40 ft | 24 kts | 74° |
| 2026-05-07 19:19 | 55.86930 | -4.42912 | 40 ft | 15 kts | 27° |
| 2026-05-07 19:19 | 55.87040 | -4.42823 | 40 ft | 19 kts | 20° |
| 2026-05-07 19:20 | 55.87178 | -4.42733 | 40 ft | 23 kts | 20° |
| 2026-05-07 19:20 | 55.87315 | -4.42644 | 40 ft | 21 kts | 19° |
| 2026-05-07 19:20 | 55.87443 | -4.42492 | 40 ft | 24 kts | 47° |
| 2026-05-07 19:20 | 55.87563 | -4.42267 | 40 ft | 17 kts | 46° |
| 2026-05-07 19:21 | 55.87640 | -4.42123 | 40 ft | 18 kts | 46° |
| 2026-05-07 19:21 | 55.87723 | -4.41966 | 40 ft | 17 kts | 46° |
| 2026-05-07 19:21 | 55.87802 | -4.41869 | 40 ft | 0 kts | 18° |
| 2026-05-07 19:22 | 55.87810 | -4.41865 | 40 ft | 3 kts | 18° |
| 2026-05-07 19:22 | 55.87868 | -4.41861 | 40 ft | 13 kts | 347° |
| 2026-05-07 19:22 | 55.87914 | -4.41937 | 40 ft | 10 kts | 275° |
| 2026-05-07 19:22 | 55.87799 | -4.42200 | 40 ft | 60 kts | 226° |
| 2026-05-07 19:23 | 55.87343 | -4.43053 | 40 ft | 128 kts | 226° |
| 2026-05-07 19:23 | 55.86625 | -4.44402 | 321 ft | 157 kts | 224° |
| 2026-05-07 19:23 | 55.85870 | -4.45793 | 1190 ft | 155 kts | 223° |
| 2026-05-07 19:23 | 55.85089 | -4.47193 | 1913 ft | 165 kts | 222° |
| 2026-05-07 19:24 | 55.84237 | -4.48702 | 2425 ft | 181 kts | 222° |
| 2026-05-07 19:24 | 55.83306 | -4.50339 | 2995 ft | 197 kts | 223° |
| 2026-05-07 19:24 | 55.82284 | -4.52136 | 3599 ft | 215 kts | 224° |
| 2026-05-07 19:24 | 55.81177 | -4.54100 | 4222 ft | 234 kts | 224° |
| 2026-05-07 19:25 | 55.79997 | -4.56200 | 5024 ft | 245 kts | 224° |
| 2026-05-07 19:25 | 55.78734 | -4.58285 | 5967 ft | 249 kts | 214° |
| 2026-05-07 19:25 | 55.77080 | -4.59168 | 6973 ft | 255 kts | 182° |
| 2026-05-07 19:25 | 55.75333 | -4.58441 | 7978 ft | 266 kts | 157° |
| 2026-05-07 19:26 | 55.73753 | -4.56578 | 8978 ft | 274 kts | 148° |
| 2026-05-07 19:26 | 55.72188 | -4.54570 | 9965 ft | 280 kts | 148° |
| 2026-05-07 19:26 | 55.70602 | -4.52550 | 10790 ft | 291 kts | 149° |
| 2026-05-07 19:26 | 55.68874 | -4.50376 | 11415 ft | 310 kts | 149° |
| 2026-05-07 19:27 | 55.67076 | -4.48135 | 12012 ft | 328 kts | 149° |
| 2026-05-07 19:27 | 55.65153 | -4.45751 | 12595 ft | 347 kts | 149° |
| 2026-05-07 19:27 | 55.63115 | -4.43227 | 13146 ft | 366 kts | 148° |
| 2026-05-07 19:27 | 55.60983 | -4.40591 | 13806 ft | 380 kts | 148° |
| 2026-05-07 19:28 | 55.58786 | -4.37873 | 14680 ft | 385 kts | 148° |
| 2026-05-07 19:28 | 55.56582 | -4.35148 | 15611 ft | 388 kts | 149° |
| 2026-05-07 19:28 | 55.54350 | -4.32398 | 16530 ft | 393 kts | 149° |
| 2026-05-07 19:28 | 55.52093 | -4.29623 | 17422 ft | 397 kts | 149° |
| 2026-05-07 19:29 | 55.49809 | -4.26823 | 18307 ft | 402 kts | 149° |
| 2026-05-07 19:29 | 55.47496 | -4.23993 | 19066 ft | 407 kts | 149° |
| 2026-05-07 19:29 | 55.45155 | -4.21135 | 19813 ft | 411 kts | 149° |
| 2026-05-07 19:29 | 55.42790 | -4.18256 | 20539 ft | 416 kts | 149° |
| 2026-05-07 19:30 | 55.40390 | -4.15335 | 21264 ft | 422 kts | 149° |
| 2026-05-07 19:30 | 55.37962 | -4.12380 | 21994 ft | 427 kts | 149° |
| 2026-05-07 19:30 | 55.35506 | -4.09397 | 22715 ft | 432 kts | 149° |
| 2026-05-07 19:30 | 55.33018 | -4.06380 | 23433 ft | 436 kts | 149° |
| 2026-05-07 19:31 | 55.30505 | -4.03338 | 24035 ft | 441 kts | 149° |
| 2026-05-07 19:31 | 55.27964 | -4.00267 | 24670 ft | 444 kts | 149° |
| 2026-05-07 19:31 | 55.25415 | -3.97192 | 25334 ft | 447 kts | 149° |
| 2026-05-07 19:31 | 55.22849 | -3.94099 | 26016 ft | 449 kts | 149° |
| 2026-05-07 19:32 | 55.20264 | -3.90989 | 26647 ft | 452 kts | 149° |
| 2026-05-07 19:32 | 55.17657 | -3.87860 | 27248 ft | 455 kts | 149° |
| 2026-05-07 19:32 | 55.15032 | -3.84713 | 27827 ft | 459 kts | 149° |
| 2026-05-07 19:32 | 55.12385 | -3.81548 | 28450 ft | 461 kts | 148° |
| 2026-05-07 19:33 | 55.09745 | -3.78392 | 29347 ft | 457 kts | 148° |
| 2026-05-07 19:33 | 55.08015 | -3.76323 | 30057 ft | 453 kts | 148° |
| 2026-05-07 19:33 | 55.05433 | -3.73240 | 30921 ft | 447 kts | 148° |
| 2026-05-07 19:33 | 55.02870 | -3.70188 | 31723 ft | 444 kts | 148° |
| 2026-05-07 19:34 | 55.00311 | -3.67149 | 32361 ft | 445 kts | 148° |
| 2026-05-07 19:34 | 54.97748 | -3.64112 | 32848 ft | 448 kts | 148° |
| 2026-05-07 19:34 | 54.95151 | -3.61087 | 32963 ft | 449 kts | 151° |
| 2026-05-07 19:34 | 54.92377 | -3.58592 | 32969 ft | 449 kts | 157° |
| 2026-05-07 19:35 | 54.86691 | -3.54009 | 32978 ft | 451 kts | 158° |
| 2026-05-07 19:35 | 54.80993 | -3.49440 | 32983 ft | 451 kts | 158° |
| 2026-05-07 19:36 | 54.75297 | -3.44847 | 32989 ft | 451 kts | 158° |
| 2026-05-07 19:36 | 54.69605 | -3.40254 | 32981 ft | 452 kts | 158° |
| 2026-05-07 19:37 | 54.63887 | -3.35648 | 32987 ft | 454 kts | 158° |
| 2026-05-07 19:37 | 54.58153 | -3.31040 | 32993 ft | 454 kts | 158° |
| 2026-05-07 19:38 | 54.52422 | -3.26447 | 32993 ft | 454 kts | 158° |
| 2026-05-07 19:38 | 54.46689 | -3.21868 | 33000 ft | 454 kts | 158° |
| 2026-05-07 19:39 | 54.40944 | -3.17301 | 32990 ft | 456 kts | 157° |
| 2026-05-07 19:39 | 54.35223 | -3.12757 | 32997 ft | 456 kts | 157° |
| 2026-05-07 19:40 | 54.29428 | -3.08167 | 33010 ft | 456 kts | 157° |
| 2026-05-07 19:40 | 54.23664 | -3.03618 | 32992 ft | 456 kts | 157° |
| 2026-05-07 19:41 | 54.17931 | -2.99109 | 33006 ft | 459 kts | 157° |
| 2026-05-07 19:41 | 54.12104 | -2.94541 | 33010 ft | 461 kts | 157° |
| 2026-05-07 19:42 | 54.06269 | -2.89980 | 33008 ft | 461 kts | 158° |
| 2026-05-07 19:42 | 54.00430 | -2.85429 | 33005 ft | 461 kts | 158° |
| 2026-05-07 19:43 | 53.94593 | -2.80894 | 33002 ft | 462 kts | 158° |
| 2026-05-07 19:43 | 53.88711 | -2.76337 | 33010 ft | 465 kts | 158° |
| 2026-05-07 19:44 | 53.82826 | -2.71795 | 33011 ft | 465 kts | 158° |
| 2026-05-07 19:44 | 53.76929 | -2.67257 | 33015 ft | 465 kts | 158° |
| 2026-05-07 19:45 | 53.71033 | -2.62733 | 33014 ft | 465 kts | 158° |
| 2026-05-07 19:45 | 53.65113 | -2.58205 | 33008 ft | 468 kts | 158° |
| 2026-05-07 19:46 | 53.59179 | -2.53683 | 33015 ft | 468 kts | 158° |
| 2026-05-07 19:46 | 53.53244 | -2.49169 | 33016 ft | 468 kts | 158° |
| 2026-05-07 19:47 | 53.47312 | -2.44672 | 33020 ft | 468 kts | 158° |
| 2026-05-07 19:47 | 53.41375 | -2.40186 | 33023 ft | 468 kts | 158° |
| 2026-05-07 19:48 | 53.35438 | -2.35713 | 33021 ft | 468 kts | 158° |
| 2026-05-07 19:48 | 53.29498 | -2.31252 | 33021 ft | 468 kts | 158° |
| 2026-05-07 19:49 | 53.23557 | -2.26803 | 33025 ft | 468 kts | 158° |
| 2026-05-07 19:49 | 53.17602 | -2.22354 | 33017 ft | 470 kts | 158° |
| 2026-05-07 19:50 | 53.14651 | -2.20159 | 32780 ft | 470 kts | 158° |
| 2026-05-07 19:50 | 53.11661 | -2.18010 | 32514 ft | 467 kts | 160° |
| 2026-05-07 19:50 | 53.08665 | -2.15939 | 32246 ft | 464 kts | 160° |
| 2026-05-07 19:50 | 53.05682 | -2.13896 | 31984 ft | 462 kts | 160° |
| 2026-05-07 19:51 | 53.02714 | -2.11864 | 31725 ft | 461 kts | 160° |
| 2026-05-07 19:51 | 52.99747 | -2.09830 | 31463 ft | 461 kts | 160° |
| 2026-05-07 19:51 | 52.96776 | -2.07790 | 31183 ft | 463 kts | 160° |
| 2026-05-07 19:51 | 52.93795 | -2.05745 | 30939 ft | 464 kts | 160° |
| 2026-05-07 19:52 | 52.90803 | -2.03694 | 30699 ft | 465 kts | 160° |
| 2026-05-07 19:52 | 52.87801 | -2.01640 | 30329 ft | 466 kts | 160° |
| 2026-05-07 19:52 | 52.84797 | -1.99587 | 29710 ft | 467 kts | 160° |
| 2026-05-07 19:52 | 52.81793 | -1.97537 | 28979 ft | 468 kts | 160° |
| 2026-05-07 19:53 | 52.78784 | -1.95483 | 28233 ft | 468 kts | 160° |
| 2026-05-07 19:53 | 52.75769 | -1.93429 | 27495 ft | 467 kts | 160° |
| 2026-05-07 19:53 | 52.72780 | -1.91392 | 27023 ft | 463 kts | 160° |
| 2026-05-07 19:53 | 52.69816 | -1.89376 | 26555 ft | 460 kts | 160° |
| 2026-05-07 19:54 | 52.66870 | -1.87378 | 26077 ft | 456 kts | 160° |
| 2026-05-07 19:54 | 52.63950 | -1.85401 | 25596 ft | 452 kts | 160° |
| 2026-05-07 19:54 | 52.61053 | -1.83441 | 25128 ft | 448 kts | 160° |
| 2026-05-07 19:54 | 52.58179 | -1.81500 | 24650 ft | 444 kts | 160° |
| 2026-05-07 19:55 | 52.55666 | -1.79805 | 24223 ft | 441 kts | 160° |
| 2026-05-07 19:55 | 52.52839 | -1.77900 | 23754 ft | 437 kts | 160° |
| 2026-05-07 19:55 | 52.50036 | -1.76014 | 23214 ft | 433 kts | 160° |
| 2026-05-07 19:55 | 52.47265 | -1.74151 | 22728 ft | 428 kts | 160° |
| 2026-05-07 19:56 | 52.44525 | -1.72313 | 22266 ft | 422 kts | 160° |
| 2026-05-07 19:56 | 52.41818 | -1.70500 | 21798 ft | 417 kts | 160° |
| 2026-05-07 19:56 | 52.39149 | -1.68706 | 21341 ft | 413 kts | 159° |
| 2026-05-07 19:56 | 52.36583 | -1.66623 | 20895 ft | 410 kts | 153° |
| 2026-05-07 19:57 | 52.34185 | -1.64109 | 20458 ft | 408 kts | 146° |
| 2026-05-07 19:57 | 52.31972 | -1.61222 | 20025 ft | 405 kts | 142° |
| 2026-05-07 19:57 | 52.29847 | -1.58225 | 19606 ft | 402 kts | 141° |
| 2026-05-07 19:57 | 52.27743 | -1.55223 | 19170 ft | 399 kts | 141° |
| 2026-05-07 19:58 | 52.25686 | -1.52303 | 18743 ft | 396 kts | 141° |
| 2026-05-07 19:58 | 52.23579 | -1.49328 | 18289 ft | 393 kts | 141° |
| 2026-05-07 19:58 | 52.21536 | -1.46455 | 17802 ft | 391 kts | 141° |
| 2026-05-07 19:58 | 52.19486 | -1.43581 | 17355 ft | 387 kts | 141° |
| 2026-05-07 19:59 | 52.17448 | -1.40731 | 16908 ft | 384 kts | 141° |
| 2026-05-07 19:59 | 52.15425 | -1.37905 | 16471 ft | 381 kts | 141° |
| 2026-05-07 19:59 | 52.13428 | -1.35121 | 16218 ft | 371 kts | 141° |
| 2026-05-07 19:59 | 52.11501 | -1.32433 | 16100 ft | 358 kts | 141° |
| 2026-05-07 20:00 | 52.09641 | -1.29844 | 15935 ft | 346 kts | 142° |
| 2026-05-07 20:00 | 52.07843 | -1.27343 | 15815 ft | 334 kts | 142° |
| 2026-05-07 20:00 | 52.06102 | -1.24927 | 15684 ft | 323 kts | 142° |
| 2026-05-07 20:00 | 52.04424 | -1.22602 | 15557 ft | 312 kts | 142° |
| 2026-05-07 20:01 | 52.02803 | -1.20357 | 15441 ft | 300 kts | 142° |
| 2026-05-07 20:01 | 52.01240 | -1.18197 | 15347 ft | 289 kts | 142° |
| 2026-05-07 20:01 | 51.99733 | -1.16114 | 15251 ft | 278 kts | 142° |
| 2026-05-07 20:01 | 51.98287 | -1.14116 | 15170 ft | 267 kts | 142° |
| 2026-05-07 20:02 | 51.96892 | -1.12191 | 15095 ft | 260 kts | 142° |
| 2026-05-07 20:02 | 51.95510 | -1.10288 | 15028 ft | 262 kts | 142° |
| 2026-05-07 20:02 | 51.94236 | -1.08535 | 14854 ft | 266 kts | 142° |
| 2026-05-07 20:02 | 51.92911 | -1.06713 | 14441 ft | 271 kts | 142° |
| 2026-05-07 20:03 | 51.91469 | -1.04729 | 14059 ft | 273 kts | 142° |
| 2026-05-07 20:03 | 51.90014 | -1.02729 | 13653 ft | 275 kts | 142° |
| 2026-05-07 20:03 | 51.88553 | -1.00721 | 13252 ft | 275 kts | 142° |
| 2026-05-07 20:03 | 51.87111 | -0.98739 | 13034 ft | 269 kts | 142° |
| 2026-05-07 20:04 | 51.85740 | -0.96733 | 12795 ft | 264 kts | 134° |
| 2026-05-07 20:04 | 51.84678 | -0.94310 | 12495 ft | 264 kts | 121° |
| 2026-05-07 20:04 | 51.83843 | -0.91673 | 12189 ft | 263 kts | 118° |
| 2026-05-07 20:04 | 51.83047 | -0.89020 | 11858 ft | 262 kts | 118° |
| 2026-05-07 20:05 | 51.82255 | -0.86372 | 11533 ft | 261 kts | 118° |
| 2026-05-07 20:05 | 51.81461 | -0.83741 | 11207 ft | 260 kts | 118° |
| 2026-05-07 20:05 | 51.80666 | -0.81124 | 10901 ft | 258 kts | 118° |
| 2026-05-07 20:05 | 51.79868 | -0.78513 | 10558 ft | 259 kts | 118° |
| 2026-05-07 20:06 | 51.79070 | -0.75905 | 10226 ft | 259 kts | 118° |
| 2026-05-07 20:06 | 51.78270 | -0.73301 | 9907 ft | 258 kts | 118° |
| 2026-05-07 20:06 | 51.77482 | -0.70736 | 9589 ft | 257 kts | 118° |
| 2026-05-07 20:06 | 51.76686 | -0.68153 | 9263 ft | 255 kts | 118° |
| 2026-05-07 20:07 | 51.75892 | -0.65579 | 8950 ft | 254 kts | 118° |
| 2026-05-07 20:07 | 51.75099 | -0.63013 | 8648 ft | 252 kts | 118° |
| 2026-05-07 20:07 | 51.74318 | -0.60486 | 8335 ft | 251 kts | 117° |
| 2026-05-07 20:07 | 51.73420 | -0.58100 | 7989 ft | 248 kts | 136° |
| 2026-05-07 20:08 | 51.71983 | -0.56673 | 7662 ft | 243 kts | 167° |
| 2026-05-07 20:08 | 51.70325 | -0.56657 | 7366 ft | 239 kts | 198° |
| 2026-05-07 20:08 | 51.68919 | -0.58006 | 7056 ft | 236 kts | 224° |
| 2026-05-07 20:08 | 51.67795 | -0.59935 | 6746 ft | 236 kts | 229° |
| 2026-05-07 20:09 | 51.66736 | -0.61959 | 6445 ft | 236 kts | 230° |
| 2026-05-07 20:09 | 51.65690 | -0.64003 | 6112 ft | 236 kts | 230° |
| 2026-05-07 20:09 | 51.64650 | -0.66052 | 5813 ft | 236 kts | 231° |
| 2026-05-07 20:10 | 51.62595 | -0.70153 | 5219 ft | 235 kts | 230° |
| 2026-05-07 20:10 | 51.61575 | -0.72212 | 4929 ft | 235 kts | 231° |
| 2026-05-07 20:10 | 51.60560 | -0.74274 | 4643 ft | 234 kts | 231° |
| 2026-05-07 20:10 | 51.59548 | -0.76327 | 4358 ft | 233 kts | 230° |
| 2026-05-07 20:11 | 51.58339 | -0.78009 | 4049 ft | 230 kts | 201° |
| 2026-05-07 20:11 | 51.56805 | -0.78553 | 3997 ft | 227 kts | 184° |
| 2026-05-07 20:11 | 51.55218 | -0.78720 | 3988 ft | 228 kts | 181° |
| 2026-05-07 20:11 | 51.53640 | -0.78831 | 3754 ft | 227 kts | 181° |
| 2026-05-07 20:12 | 51.52065 | -0.78928 | 3559 ft | 224 kts | 180° |
| 2026-05-07 20:12 | 51.50535 | -0.78988 | 3409 ft | 216 kts | 172° |
| 2026-05-07 20:12 | 51.49186 | -0.78149 | 3239 ft | 206 kts | 137° |
| 2026-05-07 20:12 | 51.48287 | -0.76426 | 3107 ft | 198 kts | 117° |
| 2026-05-07 20:13 | 51.47805 | -0.74403 | 3007 ft | 188 kts | 102° |
| 2026-05-07 20:13 | 51.47653 | -0.72401 | 3015 ft | 172 kts | 92° |
| 2026-05-07 20:13 | 51.47657 | -0.70501 | 2825 ft | 169 kts | 89° |
| 2026-05-07 20:13 | 51.47692 | -0.68625 | 2592 ft | 167 kts | 90° |
| 2026-05-07 20:14 | 51.47715 | -0.66808 | 2371 ft | 161 kts | 91° |
| 2026-05-07 20:14 | 51.47724 | -0.65018 | 2160 ft | 160 kts | 92° |
| 2026-05-07 20:14 | 51.47726 | -0.63221 | 1946 ft | 161 kts | 92° |
| 2026-05-07 20:14 | 51.47726 | -0.61428 | 1745 ft | 161 kts | 92° |
| 2026-05-07 20:15 | 51.47727 | -0.59624 | 1507 ft | 161 kts | 92° |
| 2026-05-07 20:15 | 51.47729 | -0.57828 | 1292 ft | 159 kts | 92° |
| 2026-05-07 20:15 | 51.47733 | -0.56118 | 1049 ft | 147 kts | 92° |
| 2026-05-07 20:15 | 51.47736 | -0.54492 | 853 ft | 144 kts | 92° |
| 2026-05-07 20:16 | 51.47739 | -0.52893 | 661 ft | 142 kts | 92° |
| 2026-05-07 20:16 | 51.47743 | -0.51315 | 452 ft | 140 kts | 92° |
| 2026-05-07 20:16 | 51.47750 | -0.49755 | 278 ft | 139 kts | 92° |
| 2026-05-07 20:16 | 51.47754 | -0.48204 | 107 ft | 138 kts | 91° |
| 2026-05-07 20:17 | 51.47753 | -0.46987 | 97 ft | 72 kts | 89° |
| 2026-05-07 20:17 | 51.47754 | -0.46457 | 97 ft | 40 kts | 90° |
| 2026-05-07 20:17 | 51.47706 | -0.46153 | 97 ft | 23 kts | 137° |
| 2026-05-07 20:17 | 51.47652 | -0.46089 | 98 ft | 1 kts | 144° |
| 2026-05-07 20:18 | 51.47637 | -0.46077 | 98 ft | 4 kts | 160° |
| 2026-05-07 20:18 | 51.47587 | -0.46077 | 97 ft | 12 kts | 183° |
| 2026-05-07 20:18 | 51.47545 | -0.46088 | 98 ft | 8 kts | 203° |
| 2026-05-07 20:18 | 51.47515 | -0.46192 | 96 ft | 22 kts | 273° |
| 2026-05-07 20:19 | 51.47516 | -0.46417 | 95 ft | 22 kts | 270° |
| 2026-05-07 20:19 | 51.47514 | -0.46671 | 95 ft | 17 kts | 262° |
| 2026-05-07 20:19 | 51.47413 | -0.46738 | 98 ft | 20 kts | 172° |
| 2026-05-07 20:19 | 51.47259 | -0.46726 | 94 ft | 24 kts | 179° |
| 2026-05-07 20:20 | 51.47083 | -0.46721 | 95 ft | 23 kts | 177° |
| 2026-05-07 20:20 | 51.46973 | -0.46642 | 97 ft | 12 kts | 146° |
| 2026-05-07 20:20 | 51.46890 | -0.46551 | 96 ft | 17 kts | 146° |
| 2026-05-07 20:20 | 51.46821 | -0.46449 | 98 ft | 9 kts | 85° |
| 2026-05-07 20:21 | 51.46836 | -0.46375 | 98 ft | 0 kts | 54° |
| 2026-05-07 20:21 | 51.46842 | -0.46362 | 97 ft | 0 kts | 53° |
| 2026-05-07 20:21 | 51.46846 | -0.46353 | 97 ft | 0 kts | 54° |